sensor_id;sensor_type;location;lat;lon;timestamp;P1;durP1;ratioP1;P2;durP2;ratioP2
49101;SDS011;34913;47.520;19.186;2022-08-27T00:00:25;10.77;;;4.32;;
49101;SDS011;34913;47.520;19.186;2022-08-27T00:02:50;12.32;;;4.65;;
49101;SDS011;34913;47.520;19.186;2022-08-27T00:05:16;19.05;;;5.05;;
49101;SDS011;34913;47.520;19.186;2022-08-27T00:07:42;21.92;;;5.93;;
49101;SDS011;34913;47.520;19.186;2022-08-27T00:10:10;22.27;;;6.68;;
49101;SDS011;34913;47.520;19.186;2022-08-27T00:12:38;17.80;;;5.63;;
49101;SDS011;34913;47.520;19.186;2022-08-27T00:15:04;23.83;;;6.18;;
49101;SDS011;34913;47.520;19.186;2022-08-27T00:17:31;17.95;;;5.40;;
49101;SDS011;34913;47.520;19.186;2022-08-27T00:19:57;16.75;;;5.13;;
49101;SDS011;34913;47.520;19.186;2022-08-27T00:22:22;15.85;;;5.50;;
49101;SDS011;34913;47.520;19.186;2022-08-27T00:24:48;21.75;;;6.13;;
49101;SDS011;34913;47.520;19.186;2022-08-27T00:27:13;24.98;;;6.47;;
49101;SDS011;34913;47.520;19.186;2022-08-27T00:29:39;15.50;;;5.72;;
49101;SDS011;34913;47.520;19.186;2022-08-27T00:32:04;25.55;;;6.43;;
49101;SDS011;34913;47.520;19.186;2022-08-27T00:34:30;16.85;;;5.60;;
49101;SDS011;34913;47.520;19.186;2022-08-27T00:36:56;23.45;;;6.07;;
49101;SDS011;34913;47.520;19.186;2022-08-27T00:39:21;12.13;;;5.38;;
49101;SDS011;34913;47.520;19.186;2022-08-27T00:41:47;10.98;;;4.80;;
49101;SDS011;34913;47.520;19.186;2022-08-27T00:44:13;22.55;;;6.40;;
49101;SDS011;34913;47.520;19.186;2022-08-27T00:46:44;24.67;;;6.47;;
49101;SDS011;34913;47.520;19.186;2022-08-27T00:51:40;15.98;;;5.53;;
49101;SDS011;34913;47.520;19.186;2022-08-27T00:54:08;15.73;;;5.18;;
49101;SDS011;34913;47.520;19.186;2022-08-27T00:56:36;16.90;;;5.65;;
49101;SDS011;34913;47.520;19.186;2022-08-27T00:59:08;13.80;;;5.10;;
49101;SDS011;34913;47.520;19.186;2022-08-27T01:01:35;12.57;;;4.70;;
49101;SDS011;34913;47.520;19.186;2022-08-27T01:04:21;15.32;;;5.05;;
49101;SDS011;34913;47.520;19.186;2022-08-27T01:06:47;14.48;;;4.40;;
49101;SDS011;34913;47.520;19.186;2022-08-27T01:09:12;12.80;;;4.60;;
49101;SDS011;34913;47.520;19.186;2022-08-27T01:11:41;10.80;;;4.65;;
49101;SDS011;34913;47.520;19.186;2022-08-27T01:14:08;9.68;;;4.43;;
49101;SDS011;34913;47.520;19.186;2022-08-27T01:16:35;13.55;;;4.40;;
49101;SDS011;34913;47.520;19.186;2022-08-27T01:19:05;10.70;;;4.47;;
49101;SDS011;34913;47.520;19.186;2022-08-27T01:21:37;13.65;;;4.60;;
49101;SDS011;34913;47.520;19.186;2022-08-27T01:27:00;6.85;;;4.30;;
49101;SDS011;34913;47.520;19.186;2022-08-27T01:29:28;11.98;;;4.53;;
49101;SDS011;34913;47.520;19.186;2022-08-27T01:31:57;11.25;;;4.40;;
49101;SDS011;34913;47.520;19.186;2022-08-27T01:34:34;9.27;;;4.65;;
49101;SDS011;34913;47.520;19.186;2022-08-27T01:37:00;8.00;;;4.07;;
49101;SDS011;34913;47.520;19.186;2022-08-27T01:39:26;9.02;;;4.65;;
49101;SDS011;34913;47.520;19.186;2022-08-27T01:41:51;8.75;;;4.47;;
49101;SDS011;34913;47.520;19.186;2022-08-27T01:44:17;9.05;;;4.45;;
49101;SDS011;34913;47.520;19.186;2022-08-27T01:46:43;8.77;;;4.20;;
49101;SDS011;34913;47.520;19.186;2022-08-27T01:49:09;8.23;;;3.97;;
49101;SDS011;34913;47.520;19.186;2022-08-27T01:51:35;9.25;;;4.57;;
49101;SDS011;34913;47.520;19.186;2022-08-27T01:54:01;12.65;;;4.65;;
49101;SDS011;34913;47.520;19.186;2022-08-27T01:56:27;8.10;;;4.30;;
49101;SDS011;34913;47.520;19.186;2022-08-27T01:58:52;7.50;;;4.70;;
49101;SDS011;34913;47.520;19.186;2022-08-27T02:01:18;11.00;;;4.35;;
49101;SDS011;34913;47.520;19.186;2022-08-27T02:03:44;11.50;;;4.47;;
49101;SDS011;34913;47.520;19.186;2022-08-27T02:06:11;9.07;;;4.15;;
49101;SDS011;34913;47.520;19.186;2022-08-27T02:08:37;7.82;;;4.65;;
49101;SDS011;34913;47.520;19.186;2022-08-27T02:11:03;11.30;;;4.30;;
49101;SDS011;34913;47.520;19.186;2022-08-27T02:13:30;9.57;;;4.57;;
49101;SDS011;34913;47.520;19.186;2022-08-27T02:15:55;10.95;;;4.45;;
49101;SDS011;34913;47.520;19.186;2022-08-27T02:18:21;8.73;;;5.13;;
49101;SDS011;34913;47.520;19.186;2022-08-27T02:20:46;9.00;;;4.47;;
49101;SDS011;34913;47.520;19.186;2022-08-27T02:23:13;7.82;;;4.60;;
49101;SDS011;34913;47.520;19.186;2022-08-27T02:25:40;11.02;;;4.80;;
49101;SDS011;34913;47.520;19.186;2022-08-27T02:28:06;10.60;;;4.65;;
49101;SDS011;34913;47.520;19.186;2022-08-27T02:30:32;11.93;;;4.90;;
49101;SDS011;34913;47.520;19.186;2022-08-27T02:33:01;12.43;;;4.95;;
49101;SDS011;34913;47.520;19.186;2022-08-27T02:35:29;12.93;;;4.40;;
49101;SDS011;34913;47.520;19.186;2022-08-27T02:37:56;12.10;;;4.70;;
49101;SDS011;34913;47.520;19.186;2022-08-27T02:40:23;10.63;;;4.95;;
49101;SDS011;34913;47.520;19.186;2022-08-27T02:42:48;9.77;;;4.63;;
49101;SDS011;34913;47.520;19.186;2022-08-27T02:45:15;9.98;;;5.20;;
49101;SDS011;34913;47.520;19.186;2022-08-27T02:47:41;10.43;;;4.40;;
49101;SDS011;34913;47.520;19.186;2022-08-27T02:50:07;8.18;;;4.40;;
49101;SDS011;34913;47.520;19.186;2022-08-27T02:52:33;8.75;;;4.57;;
49101;SDS011;34913;47.520;19.186;2022-08-27T02:54:59;9.45;;;4.55;;
49101;SDS011;34913;47.520;19.186;2022-08-27T02:57:24;10.05;;;4.82;;
49101;SDS011;34913;47.520;19.186;2022-08-27T02:59:50;7.28;;;4.53;;
49101;SDS011;34913;47.520;19.186;2022-08-27T03:02:17;7.30;;;4.53;;
49101;SDS011;34913;47.520;19.186;2022-08-27T03:04:43;8.95;;;4.68;;
49101;SDS011;34913;47.520;19.186;2022-08-27T03:07:09;9.23;;;5.30;;
49101;SDS011;34913;47.520;19.186;2022-08-27T03:09:35;8.40;;;5.10;;
49101;SDS011;34913;47.520;19.186;2022-08-27T03:12:00;10.40;;;5.05;;
49101;SDS011;34913;47.520;19.186;2022-08-27T03:14:27;10.00;;;4.97;;
49101;SDS011;34913;47.520;19.186;2022-08-27T03:16:52;9.43;;;4.72;;
49101;SDS011;34913;47.520;19.186;2022-08-27T03:19:18;14.35;;;5.30;;
49101;SDS011;34913;47.520;19.186;2022-08-27T03:21:45;9.18;;;4.95;;
49101;SDS011;34913;47.520;19.186;2022-08-27T03:24:11;12.27;;;4.93;;
49101;SDS011;34913;47.520;19.186;2022-08-27T03:26:37;11.65;;;5.82;;
49101;SDS011;34913;47.520;19.186;2022-08-27T03:29:03;13.48;;;5.57;;
49101;SDS011;34913;47.520;19.186;2022-08-27T03:31:29;10.00;;;5.22;;
49101;SDS011;34913;47.520;19.186;2022-08-27T03:34:04;13.57;;;5.50;;
49101;SDS011;34913;47.520;19.186;2022-08-27T03:36:33;10.13;;;5.15;;
49101;SDS011;34913;47.520;19.186;2022-08-27T03:38:58;9.38;;;4.93;;
49101;SDS011;34913;47.520;19.186;2022-08-27T03:41:24;12.00;;;5.35;;
49101;SDS011;34913;47.520;19.186;2022-08-27T03:43:50;8.95;;;5.13;;
49101;SDS011;34913;47.520;19.186;2022-08-27T03:46:18;11.55;;;5.35;;
49101;SDS011;34913;47.520;19.186;2022-08-27T03:48:45;13.55;;;6.25;;
49101;SDS011;34913;47.520;19.186;2022-08-27T03:51:12;8.32;;;5.03;;
49101;SDS011;34913;47.520;19.186;2022-08-27T03:53:40;12.90;;;5.10;;
49101;SDS011;34913;47.520;19.186;2022-08-27T03:56:06;14.15;;;5.93;;
49101;SDS011;34913;47.520;19.186;2022-08-27T03:58:33;11.35;;;5.60;;
49101;SDS011;34913;47.520;19.186;2022-08-27T04:00:59;10.77;;;5.88;;
49101;SDS011;34913;47.520;19.186;2022-08-27T04:03:25;14.23;;;5.75;;
49101;SDS011;34913;47.520;19.186;2022-08-27T04:05:51;12.45;;;5.53;;
49101;SDS011;34913;47.520;19.186;2022-08-27T04:08:18;11.55;;;5.65;;
49101;SDS011;34913;47.520;19.186;2022-08-27T04:10:43;14.00;;;5.63;;
49101;SDS011;34913;47.520;19.186;2022-08-27T04:13:09;9.25;;;5.13;;
49101;SDS011;34913;47.520;19.186;2022-08-27T04:15:34;11.00;;;5.40;;
49101;SDS011;34913;47.520;19.186;2022-08-27T04:18:00;9.77;;;4.93;;
49101;SDS011;34913;47.520;19.186;2022-08-27T04:20:26;11.45;;;5.68;;
49101;SDS011;34913;47.520;19.186;2022-08-27T04:22:52;10.10;;;5.53;;
49101;SDS011;34913;47.520;19.186;2022-08-27T04:25:18;9.10;;;5.22;;
49101;SDS011;34913;47.520;19.186;2022-08-27T04:27:43;10.05;;;5.30;;
49101;SDS011;34913;47.520;19.186;2022-08-27T04:30:09;8.55;;;5.13;;
49101;SDS011;34913;47.520;19.186;2022-08-27T04:32:34;10.68;;;5.55;;
49101;SDS011;34913;47.520;19.186;2022-08-27T04:35:01;7.72;;;5.28;;
49101;SDS011;34913;47.520;19.186;2022-08-27T04:37:29;10.77;;;5.20;;
49101;SDS011;34913;47.520;19.186;2022-08-27T04:39:57;9.10;;;5.07;;
49101;SDS011;34913;47.520;19.186;2022-08-27T04:42:23;9.30;;;5.55;;
49101;SDS011;34913;47.520;19.186;2022-08-27T04:44:48;11.75;;;4.82;;
49101;SDS011;34913;47.520;19.186;2022-08-27T04:47:14;10.05;;;6.25;;
49101;SDS011;34913;47.520;19.186;2022-08-27T04:49:41;11.00;;;5.50;;
49101;SDS011;34913;47.520;19.186;2022-08-27T04:52:07;10.10;;;5.38;;
49101;SDS011;34913;47.520;19.186;2022-08-27T04:54:32;14.15;;;5.35;;
49101;SDS011;34913;47.520;19.186;2022-08-27T04:57:02;10.52;;;4.97;;
49101;SDS011;34913;47.520;19.186;2022-08-27T04:59:29;12.70;;;5.32;;
49101;SDS011;34913;47.520;19.186;2022-08-27T05:01:56;8.93;;;5.22;;
49101;SDS011;34913;47.520;19.186;2022-08-27T05:04:21;11.43;;;5.25;;
49101;SDS011;34913;47.520;19.186;2022-08-27T05:06:47;12.48;;;5.30;;
49101;SDS011;34913;47.520;19.186;2022-08-27T05:09:14;12.55;;;5.10;;
49101;SDS011;34913;47.520;19.186;2022-08-27T05:11:41;9.50;;;5.03;;
49101;SDS011;34913;47.520;19.186;2022-08-27T05:14:09;14.85;;;5.45;;
49101;SDS011;34913;47.520;19.186;2022-08-27T05:16:37;12.23;;;5.22;;
49101;SDS011;34913;47.520;19.186;2022-08-27T05:19:04;13.65;;;5.40;;
49101;SDS011;34913;47.520;19.186;2022-08-27T05:21:33;9.30;;;5.10;;
49101;SDS011;34913;47.520;19.186;2022-08-27T05:24:00;11.60;;;5.30;;
49101;SDS011;34913;47.520;19.186;2022-08-27T05:26:28;10.95;;;5.13;;
49101;SDS011;34913;47.520;19.186;2022-08-27T05:28:56;11.07;;;4.78;;
49101;SDS011;34913;47.520;19.186;2022-08-27T05:31:23;13.07;;;5.38;;
49101;SDS011;34913;47.520;19.186;2022-08-27T05:33:48;10.10;;;5.15;;
49101;SDS011;34913;47.520;19.186;2022-08-27T05:36:18;12.15;;;5.30;;
49101;SDS011;34913;47.520;19.186;2022-08-27T05:38:46;11.40;;;5.00;;
49101;SDS011;34913;47.520;19.186;2022-08-27T05:41:15;12.63;;;4.88;;
49101;SDS011;34913;47.520;19.186;2022-08-27T05:43:44;12.05;;;4.70;;
49101;SDS011;34913;47.520;19.186;2022-08-27T05:46:11;10.60;;;5.20;;
49101;SDS011;34913;47.520;19.186;2022-08-27T05:48:39;7.35;;;4.35;;
49101;SDS011;34913;47.520;19.186;2022-08-27T05:51:10;14.73;;;4.43;;
49101;SDS011;34913;47.520;19.186;2022-08-27T05:53:37;9.23;;;4.35;;
49101;SDS011;34913;47.520;19.186;2022-08-27T05:56:03;9.35;;;3.85;;
49101;SDS011;34913;47.520;19.186;2022-08-27T05:58:29;8.35;;;4.20;;
49101;SDS011;34913;47.520;19.186;2022-08-27T06:01:13;9.32;;;4.05;;
49101;SDS011;34913;47.520;19.186;2022-08-27T06:03:41;9.13;;;3.90;;
49101;SDS011;34913;47.520;19.186;2022-08-27T06:06:08;7.97;;;4.20;;
49101;SDS011;34913;47.520;19.186;2022-08-27T06:08:35;12.10;;;4.43;;
49101;SDS011;34913;47.520;19.186;2022-08-27T06:11:03;10.27;;;4.60;;
49101;SDS011;34913;47.520;19.186;2022-08-27T06:13:31;8.35;;;3.97;;
49101;SDS011;34913;47.520;19.186;2022-08-27T06:16:08;10.95;;;4.28;;
49101;SDS011;34913;47.520;19.186;2022-08-27T06:18:39;16.00;;;4.40;;
49101;SDS011;34913;47.520;19.186;2022-08-27T06:21:07;12.40;;;4.07;;
49101;SDS011;34913;47.520;19.186;2022-08-27T06:23:33;12.73;;;3.92;;
49101;SDS011;34913;47.520;19.186;2022-08-27T06:25:59;11.60;;;4.00;;
49101;SDS011;34913;47.520;19.186;2022-08-27T06:28:26;15.15;;;4.43;;
49101;SDS011;34913;47.520;19.186;2022-08-27T06:31:03;8.60;;;4.10;;
49101;SDS011;34913;47.520;19.186;2022-08-27T06:33:36;12.25;;;4.00;;
49101;SDS011;34913;47.520;19.186;2022-08-27T06:36:02;11.02;;;3.95;;
49101;SDS011;34913;47.520;19.186;2022-08-27T06:38:30;12.68;;;4.22;;
49101;SDS011;34913;47.520;19.186;2022-08-27T06:40:56;8.07;;;3.60;;
49101;SDS011;34913;47.520;19.186;2022-08-27T06:43:22;9.68;;;3.80;;
49101;SDS011;34913;47.520;19.186;2022-08-27T06:45:49;8.38;;;3.40;;
49101;SDS011;34913;47.520;19.186;2022-08-27T06:48:15;9.70;;;4.13;;
49101;SDS011;34913;47.520;19.186;2022-08-27T06:50:41;12.68;;;3.60;;
49101;SDS011;34913;47.520;19.186;2022-08-27T06:53:08;8.68;;;3.95;;
49101;SDS011;34913;47.520;19.186;2022-08-27T06:55:42;5.82;;;3.70;;
49101;SDS011;34913;47.520;19.186;2022-08-27T06:58:09;11.93;;;3.72;;
49101;SDS011;34913;47.520;19.186;2022-08-27T07:00:35;8.70;;;3.80;;
49101;SDS011;34913;47.520;19.186;2022-08-27T07:03:01;12.75;;;3.47;;
49101;SDS011;34913;47.520;19.186;2022-08-27T07:05:29;14.85;;;3.53;;
49101;SDS011;34913;47.520;19.186;2022-08-27T07:07:55;10.63;;;3.97;;
49101;SDS011;34913;47.520;19.186;2022-08-27T07:10:21;9.02;;;3.90;;
49101;SDS011;34913;47.520;19.186;2022-08-27T07:12:47;7.50;;;3.55;;
49101;SDS011;34913;47.520;19.186;2022-08-27T07:15:12;7.55;;;3.63;;
49101;SDS011;34913;47.520;19.186;2022-08-27T07:17:37;9.25;;;3.60;;
49101;SDS011;34913;47.520;19.186;2022-08-27T07:20:05;12.25;;;3.72;;
49101;SDS011;34913;47.520;19.186;2022-08-27T07:22:33;10.02;;;3.33;;
49101;SDS011;34913;47.520;19.186;2022-08-27T07:24:58;8.23;;;3.50;;
49101;SDS011;34913;47.520;19.186;2022-08-27T07:27:24;15.23;;;3.50;;
49101;SDS011;34913;47.520;19.186;2022-08-27T07:29:49;10.10;;;3.88;;
49101;SDS011;34913;47.520;19.186;2022-08-27T07:32:15;7.25;;;3.65;;
49101;SDS011;34913;47.520;19.186;2022-08-27T07:34:40;8.40;;;3.58;;
49101;SDS011;34913;47.520;19.186;2022-08-27T07:37:06;10.55;;;3.60;;
49101;SDS011;34913;47.520;19.186;2022-08-27T07:39:31;9.55;;;3.50;;
49101;SDS011;34913;47.520;19.186;2022-08-27T07:41:57;7.45;;;3.30;;
49101;SDS011;34913;47.520;19.186;2022-08-27T07:44:41;12.45;;;3.58;;
49101;SDS011;34913;47.520;19.186;2022-08-27T07:47:07;10.88;;;3.47;;
49101;SDS011;34913;47.520;19.186;2022-08-27T07:49:32;11.98;;;3.50;;
49101;SDS011;34913;47.520;19.186;2022-08-27T07:51:59;9.00;;;3.38;;
49101;SDS011;34913;47.520;19.186;2022-08-27T07:54:26;9.60;;;3.20;;
49101;SDS011;34913;47.520;19.186;2022-08-27T07:56:52;7.38;;;3.50;;
49101;SDS011;34913;47.520;19.186;2022-08-27T07:59:18;8.35;;;3.45;;
49101;SDS011;34913;47.520;19.186;2022-08-27T08:01:43;8.25;;;3.22;;
49101;SDS011;34913;47.520;19.186;2022-08-27T08:04:09;9.43;;;3.53;;
49101;SDS011;34913;47.520;19.186;2022-08-27T08:06:35;10.65;;;3.40;;
49101;SDS011;34913;47.520;19.186;2022-08-27T08:09:02;9.48;;;3.45;;
49101;SDS011;34913;47.520;19.186;2022-08-27T08:11:28;8.15;;;3.40;;
49101;SDS011;34913;47.520;19.186;2022-08-27T08:13:54;5.25;;;3.00;;
49101;SDS011;34913;47.520;19.186;2022-08-27T08:16:22;9.07;;;3.25;;
49101;SDS011;34913;47.520;19.186;2022-08-27T08:18:48;8.10;;;3.22;;
49101;SDS011;34913;47.520;19.186;2022-08-27T08:21:14;6.28;;;3.60;;
49101;SDS011;34913;47.520;19.186;2022-08-27T08:23:40;7.45;;;3.17;;
49101;SDS011;34913;47.520;19.186;2022-08-27T08:26:06;8.93;;;3.50;;
49101;SDS011;34913;47.520;19.186;2022-08-27T08:28:32;9.30;;;3.60;;
49101;SDS011;34913;47.520;19.186;2022-08-27T08:30:58;8.85;;;3.13;;
49101;SDS011;34913;47.520;19.186;2022-08-27T08:33:25;6.38;;;3.00;;
49101;SDS011;34913;47.520;19.186;2022-08-27T08:35:52;9.70;;;3.53;;
49101;SDS011;34913;47.520;19.186;2022-08-27T08:38:17;10.55;;;3.45;;
49101;SDS011;34913;47.520;19.186;2022-08-27T08:40:45;6.32;;;3.20;;
49101;SDS011;34913;47.520;19.186;2022-08-27T08:43:56;11.25;;;3.13;;
49101;SDS011;34913;47.520;19.186;2022-08-27T08:46:26;10.90;;;3.25;;
49101;SDS011;34913;47.520;19.186;2022-08-27T08:48:58;8.27;;;3.08;;
49101;SDS011;34913;47.520;19.186;2022-08-27T08:51:33;7.57;;;3.10;;
49101;SDS011;34913;47.520;19.186;2022-08-27T08:56:46;5.53;;;3.00;;
49101;SDS011;34913;47.520;19.186;2022-08-27T08:59:36;9.68;;;3.40;;
49101;SDS011;34913;47.520;19.186;2022-08-27T09:02:09;8.50;;;3.22;;
49101;SDS011;34913;47.520;19.186;2022-08-27T09:04:38;12.60;;;3.40;;
49101;SDS011;34913;47.520;19.186;2022-08-27T09:07:06;10.68;;;3.33;;
49101;SDS011;34913;47.520;19.186;2022-08-27T09:09:43;6.20;;;3.15;;
49101;SDS011;34913;47.520;19.186;2022-08-27T09:12:18;6.80;;;3.00;;
49101;SDS011;34913;47.520;19.186;2022-08-27T09:17:43;8.02;;;3.17;;
49101;SDS011;34913;47.520;19.186;2022-08-27T09:20:11;10.75;;;3.20;;
49101;SDS011;34913;47.520;19.186;2022-08-27T09:22:46;9.13;;;2.97;;
49101;SDS011;34913;47.520;19.186;2022-08-27T09:27:57;6.57;;;2.60;;
49101;SDS011;34913;47.520;19.186;2022-08-27T09:30:26;6.15;;;2.78;;
49101;SDS011;34913;47.520;19.186;2022-08-27T09:32:56;12.20;;;3.50;;
49101;SDS011;34913;47.520;19.186;2022-08-27T09:35:25;7.57;;;2.97;;
49101;SDS011;34913;47.520;19.186;2022-08-27T09:37:53;5.30;;;2.95;;
49101;SDS011;34913;47.520;19.186;2022-08-27T09:40:29;10.52;;;3.20;;
49101;SDS011;34913;47.520;19.186;2022-08-27T09:43:30;7.53;;;2.72;;
49101;SDS011;34913;47.520;19.186;2022-08-27T09:45:56;9.80;;;2.80;;
49101;SDS011;34913;47.520;19.186;2022-08-27T09:48:27;10.15;;;2.63;;
49101;SDS011;34913;47.520;19.186;2022-08-27T09:51:04;8.48;;;2.50;;
49101;SDS011;34913;47.520;19.186;2022-08-27T09:56:22;6.38;;;2.85;;
49101;SDS011;34913;47.520;19.186;2022-08-27T09:59:41;6.80;;;2.50;;
49101;SDS011;34913;47.520;19.186;2022-08-27T10:01:55;8.18;;;2.80;;
49101;SDS011;34913;47.520;19.186;2022-08-27T10:04:39;6.22;;;2.30;;
49101;SDS011;34913;47.520;19.186;2022-08-27T10:15:16;4.28;;;2.50;;
49101;SDS011;34913;47.520;19.186;2022-08-27T10:20:40;7.22;;;2.17;;
49101;SDS011;34913;47.520;19.186;2022-08-27T10:26:15;9.82;;;2.30;;
49101;SDS011;34913;47.520;19.186;2022-08-27T10:34:10;7.80;;;2.10;;
49101;SDS011;34913;47.520;19.186;2022-08-27T10:42:26;4.95;;;2.03;;
49101;SDS011;34913;47.520;19.186;2022-08-27T10:53:36;5.65;;;2.55;;
49101;SDS011;34913;47.520;19.186;2022-08-27T10:56:27;7.72;;;2.20;;
49101;SDS011;34913;47.520;19.186;2022-08-27T11:04:59;7.53;;;2.30;;
49101;SDS011;34913;47.520;19.186;2022-08-27T11:07:35;5.22;;;2.25;;
49101;SDS011;34913;47.520;19.186;2022-08-27T11:10:09;4.30;;;2.05;;
49101;SDS011;34913;47.520;19.186;2022-08-27T11:12:44;5.78;;;2.00;;
49101;SDS011;34913;47.520;19.186;2022-08-27T11:17:56;6.22;;;2.13;;
49101;SDS011;34913;47.520;19.186;2022-08-27T11:23:02;11.63;;;2.42;;
49101;SDS011;34913;47.520;19.186;2022-08-27T11:25:39;7.90;;;2.10;;
49101;SDS011;34913;47.520;19.186;2022-08-27T11:28:14;6.15;;;2.03;;
49101;SDS011;34913;47.520;19.186;2022-08-27T11:42:15;13.15;;;2.20;;
49101;SDS011;34913;47.520;19.186;2022-08-27T11:44:47;8.50;;;1.90;;
49101;SDS011;34913;47.520;19.186;2022-08-27T11:47:19;7.60;;;2.00;;
49101;SDS011;34913;47.520;19.186;2022-08-27T11:52:37;7.85;;;1.95;;
49101;SDS011;34913;47.520;19.186;2022-08-27T11:57:33;9.40;;;2.25;;
49101;SDS011;34913;47.520;19.186;2022-08-27T12:03:10;8.52;;;2.10;;
49101;SDS011;34913;47.520;19.186;2022-08-27T12:08:38;6.80;;;2.10;;
49101;SDS011;34913;47.520;19.186;2022-08-27T12:16:15;11.80;;;2.35;;
49101;SDS011;34913;47.520;19.186;2022-08-27T12:18:58;4.50;;;2.28;;
49101;SDS011;34913;47.520;19.186;2022-08-27T12:21:36;6.38;;;2.63;;
49101;SDS011;34913;47.520;19.186;2022-08-27T12:27:13;8.45;;;2.30;;
49101;SDS011;34913;47.520;19.186;2022-08-27T12:35:14;5.38;;;2.30;;
49101;SDS011;34913;47.520;19.186;2022-08-27T12:37:49;10.02;;;2.40;;
49101;SDS011;34913;47.520;19.186;2022-08-27T12:43:09;11.68;;;2.30;;
49101;SDS011;34913;47.520;19.186;2022-08-27T12:48:45;8.85;;;2.13;;
49101;SDS011;34913;47.520;19.186;2022-08-27T12:56:44;9.35;;;2.50;;
49101;SDS011;34913;47.520;19.186;2022-08-27T12:59:40;6.07;;;2.17;;
49101;SDS011;34913;47.520;19.186;2022-08-27T13:04:56;9.32;;;2.65;;
49101;SDS011;34913;47.520;19.186;2022-08-27T13:07:29;5.95;;;2.22;;
49101;SDS011;34913;47.520;19.186;2022-08-27T13:10:07;12.02;;;2.30;;
49101;SDS011;34913;47.520;19.186;2022-08-27T13:12:38;10.38;;;2.85;;
49101;SDS011;34913;47.520;19.186;2022-08-27T13:15:05;7.13;;;2.33;;
49101;SDS011;34913;47.520;19.186;2022-08-27T13:17:35;7.47;;;2.30;;
49101;SDS011;34913;47.520;19.186;2022-08-27T13:20:03;7.50;;;2.20;;
49101;SDS011;34913;47.520;19.186;2022-08-27T13:22:39;6.38;;;2.15;;
49101;SDS011;34913;47.520;19.186;2022-08-27T13:25:09;7.93;;;2.30;;
49101;SDS011;34913;47.520;19.186;2022-08-27T13:27:55;6.95;;;2.28;;
49101;SDS011;34913;47.520;19.186;2022-08-27T13:30:42;8.07;;;2.53;;
49101;SDS011;34913;47.520;19.186;2022-08-27T13:33:12;8.73;;;2.42;;
49101;SDS011;34913;47.520;19.186;2022-08-27T13:35:42;6.60;;;2.80;;
49101;SDS011;34913;47.520;19.186;2022-08-27T13:38:08;7.78;;;2.50;;
49101;SDS011;34913;47.520;19.186;2022-08-27T13:40:36;13.05;;;2.67;;
49101;SDS011;34913;47.520;19.186;2022-08-27T13:43:14;6.47;;;2.55;;
49101;SDS011;34913;47.520;19.186;2022-08-27T13:45:41;8.63;;;2.80;;
49101;SDS011;34913;47.520;19.186;2022-08-27T13:48:13;8.55;;;2.72;;
49101;SDS011;34913;47.520;19.186;2022-08-27T13:50:52;7.63;;;2.60;;
49101;SDS011;34913;47.520;19.186;2022-08-27T13:53:24;9.55;;;3.13;;
49101;SDS011;34913;47.520;19.186;2022-08-27T13:56:21;13.93;;;2.80;;
49101;SDS011;34913;47.520;19.186;2022-08-27T13:59:08;6.65;;;2.42;;
49101;SDS011;34913;47.520;19.186;2022-08-27T14:02:02;11.15;;;3.10;;
49101;SDS011;34913;47.520;19.186;2022-08-27T14:04:38;8.65;;;2.88;;
49101;SDS011;34913;47.520;19.186;2022-08-27T14:09:32;12.60;;;3.13;;
49101;SDS011;34913;47.520;19.186;2022-08-27T14:11:59;19.17;;;3.50;;
49101;SDS011;34913;47.520;19.186;2022-08-27T14:14:26;12.27;;;3.08;;
49101;SDS011;34913;47.520;19.186;2022-08-27T14:16:57;9.00;;;2.70;;
49101;SDS011;34913;47.520;19.186;2022-08-27T14:19:29;10.73;;;3.00;;
49101;SDS011;34913;47.520;19.186;2022-08-27T14:21:57;9.55;;;2.90;;
49101;SDS011;34913;47.520;19.186;2022-08-27T14:24:24;12.05;;;3.08;;
49101;SDS011;34913;47.520;19.186;2022-08-27T14:26:51;10.80;;;3.25;;
49101;SDS011;34913;47.520;19.186;2022-08-27T14:29:18;10.85;;;3.28;;
49101;SDS011;34913;47.520;19.186;2022-08-27T14:31:44;9.45;;;2.97;;
49101;SDS011;34913;47.520;19.186;2022-08-27T14:34:10;9.02;;;2.95;;
49101;SDS011;34913;47.520;19.186;2022-08-27T14:36:39;6.13;;;2.60;;
49101;SDS011;34913;47.520;19.186;2022-08-27T14:39:06;12.37;;;3.43;;
49101;SDS011;34913;47.520;19.186;2022-08-27T14:41:32;6.32;;;2.60;;
49101;SDS011;34913;47.520;19.186;2022-08-27T14:43:58;9.48;;;3.03;;
49101;SDS011;34913;47.520;19.186;2022-08-27T14:46:26;7.57;;;3.05;;
49101;SDS011;34913;47.520;19.186;2022-08-27T14:48:54;6.82;;;2.88;;
49101;SDS011;34913;47.520;19.186;2022-08-27T14:51:26;11.02;;;3.00;;
49101;SDS011;34913;47.520;19.186;2022-08-27T14:53:55;7.82;;;2.80;;
49101;SDS011;34913;47.520;19.186;2022-08-27T14:56:22;8.20;;;2.80;;
49101;SDS011;34913;47.520;19.186;2022-08-27T14:58:49;13.60;;;2.88;;
49101;SDS011;34913;47.520;19.186;2022-08-27T15:01:15;7.32;;;2.47;;
49101;SDS011;34913;47.520;19.186;2022-08-27T15:03:45;8.52;;;3.00;;
49101;SDS011;34913;47.520;19.186;2022-08-27T15:08:39;8.27;;;2.95;;
49101;SDS011;34913;47.520;19.186;2022-08-27T15:11:04;9.70;;;3.00;;
49101;SDS011;34913;47.520;19.186;2022-08-27T15:13:30;8.68;;;2.80;;
49101;SDS011;34913;47.520;19.186;2022-08-27T15:15:56;7.68;;;2.95;;
49101;SDS011;34913;47.520;19.186;2022-08-27T15:18:22;6.47;;;3.03;;
49101;SDS011;34913;47.520;19.186;2022-08-27T15:20:47;10.43;;;3.22;;
49101;SDS011;34913;47.520;19.186;2022-08-27T15:23:13;11.35;;;3.15;;
49101;SDS011;34913;47.520;19.186;2022-08-27T15:25:40;7.57;;;3.47;;
49101;SDS011;34913;47.520;19.186;2022-08-27T15:28:06;8.52;;;2.97;;
49101;SDS011;34913;47.520;19.186;2022-08-27T15:30:32;11.50;;;3.30;;
49101;SDS011;34913;47.520;19.186;2022-08-27T15:32:58;8.82;;;2.90;;
49101;SDS011;34913;47.520;19.186;2022-08-27T15:35:25;8.23;;;2.75;;
49101;SDS011;34913;47.520;19.186;2022-08-27T15:37:52;8.18;;;3.08;;
49101;SDS011;34913;47.520;19.186;2022-08-27T15:40:19;10.10;;;2.90;;
49101;SDS011;34913;47.520;19.186;2022-08-27T15:42:46;11.40;;;2.83;;
49101;SDS011;34913;47.520;19.186;2022-08-27T15:45:16;7.45;;;2.90;;
49101;SDS011;34913;47.520;19.186;2022-08-27T15:47:42;7.55;;;2.95;;
49101;SDS011;34913;47.520;19.186;2022-08-27T15:50:07;7.43;;;2.90;;
49101;SDS011;34913;47.520;19.186;2022-08-27T15:52:33;6.95;;;2.95;;
49101;SDS011;34913;47.520;19.186;2022-08-27T15:55:00;9.68;;;3.10;;
49101;SDS011;34913;47.520;19.186;2022-08-27T15:57:26;7.22;;;2.72;;
49101;SDS011;34913;47.520;19.186;2022-08-27T15:59:52;13.45;;;3.00;;
49101;SDS011;34913;47.520;19.186;2022-08-27T16:02:19;6.93;;;2.92;;
49101;SDS011;34913;47.520;19.186;2022-08-27T16:04:47;5.50;;;3.03;;
49101;SDS011;34913;47.520;19.186;2022-08-27T16:07:12;6.55;;;2.53;;
49101;SDS011;34913;47.520;19.186;2022-08-27T16:09:38;6.90;;;2.95;;
49101;SDS011;34913;47.520;19.186;2022-08-27T16:12:03;13.55;;;3.05;;
49101;SDS011;34913;47.520;19.186;2022-08-27T16:14:29;6.82;;;2.90;;
49101;SDS011;34913;47.520;19.186;2022-08-27T16:16:55;11.35;;;3.45;;
49101;SDS011;34913;47.520;19.186;2022-08-27T16:19:21;8.30;;;3.17;;
49101;SDS011;34913;47.520;19.186;2022-08-27T16:21:48;7.80;;;3.05;;
49101;SDS011;34913;47.520;19.186;2022-08-27T16:24:15;10.88;;;3.35;;
49101;SDS011;34913;47.520;19.186;2022-08-27T16:26:40;6.97;;;3.08;;
49101;SDS011;34913;47.520;19.186;2022-08-27T16:29:06;8.98;;;2.90;;
49101;SDS011;34913;47.520;19.186;2022-08-27T16:31:32;8.40;;;2.92;;
49101;SDS011;34913;47.520;19.186;2022-08-27T16:33:59;9.45;;;3.05;;